EVE830 LEMD-LIRF
Flight info
| Callsign | EVE830 |
|---|---|
| Flight time | 1h 49m |
| Altitude | 40000 |
| Route | PINAR N870 PONEN/N0459F390 N870 SEROX/N0462F400 N870 BCN N725 OSPOK/N0457F390 DCT NOLVI DCT ORKUM/N0458F400 DCT ELSAG DCT ALG DCT TINTO DCT VALMA |
| Aircraft | A333/H-SDE3GHIJ2J3J5M1RVWXY/LB2D1 |
Departure
| Time | 2026-05-07 01:57 |
|---|---|
| Airport | Adolfo Suárez Madrid–Barajas Airport (LEMD) |
Arrival
| Time | 2026-05-07 03:46 |
|---|---|
| Airport | Rome–Fiumicino Leonardo da Vinci International Airport (LIRF) |
| Time | Latitude | Longitude | Altitude | Speed | Heading |
|---|---|---|---|---|---|
| 2026-05-07 01:43 | 40.49539 | -3.56870 | 1980 ft | 0 kts | 89° |
| 2026-05-07 01:50 | 40.49538 | -3.56900 | 1976 ft | 4 kts | 89° |
| 2026-05-07 01:50 | 40.49538 | -3.56935 | 1976 ft | 4 kts | 89° |
| 2026-05-07 01:50 | 40.49538 | -3.56960 | 1977 ft | 4 kts | 101° |
| 2026-05-07 01:51 | 40.49541 | -3.56976 | 1978 ft | 5 kts | 118° |
| 2026-05-07 01:51 | 40.49558 | -3.56999 | 1982 ft | 6 kts | 161° |
| 2026-05-07 01:51 | 40.49582 | -3.57003 | 1983 ft | 6 kts | 179° |
| 2026-05-07 01:51 | 40.49597 | -3.57004 | 1982 ft | 3 kts | 179° |
| 2026-05-07 01:52 | 40.49597 | -3.57003 | 1982 ft | 0 kts | 179° |
| 2026-05-07 01:53 | 40.49596 | -3.57003 | 2008 ft | 1 kts | 179° |
| 2026-05-07 01:54 | 40.49536 | -3.57003 | 1983 ft | 18 kts | 180° |
| 2026-05-07 01:54 | 40.49384 | -3.57003 | 1979 ft | 15 kts | 180° |
| 2026-05-07 01:54 | 40.49330 | -3.57005 | 1983 ft | 0 kts | 184° |
| 2026-05-07 01:54 | 40.49329 | -3.57006 | 1983 ft | 1 kts | 187° |
| 2026-05-07 01:55 | 40.49299 | -3.57030 | 1986 ft | 4 kts | 234° |
| 2026-05-07 01:55 | 40.49290 | -3.57097 | 1983 ft | 14 kts | 269° |
| 2026-05-07 01:55 | 40.49231 | -3.57224 | 1988 ft | 21 kts | 189° |
| 2026-05-07 01:55 | 40.49085 | -3.57268 | 1990 ft | 18 kts | 249° |
| 2026-05-07 01:56 | 40.49167 | -3.57432 | 1992 ft | 28 kts | 332° |
| 2026-05-07 01:56 | 40.49497 | -3.57456 | 1989 ft | 81 kts | 0° |
| 2026-05-07 01:56 | 40.50315 | -3.57460 | 1994 ft | 153 kts | 359° |
| 2026-05-07 01:56 | 40.51581 | -3.57460 | 2274 ft | 203 kts | 0° |
| 2026-05-07 01:57 | 40.53047 | -3.57459 | 3308 ft | 213 kts | 0° |
| 2026-05-07 01:57 | 40.54495 | -3.57448 | 4613 ft | 206 kts | 1° |
| 2026-05-07 01:57 | 40.55938 | -3.57437 | 5372 ft | 210 kts | 359° |
| 2026-05-07 01:57 | 40.57464 | -3.57438 | 5822 ft | 231 kts | 359° |
| 2026-05-07 01:58 | 40.59151 | -3.57385 | 6173 ft | 253 kts | 5° |
| 2026-05-07 01:58 | 40.60951 | -3.56959 | 6650 ft | 270 kts | 12° |
| 2026-05-07 01:58 | 40.62796 | -3.56363 | 7474 ft | 275 kts | 13° |
| 2026-05-07 01:58 | 40.64649 | -3.55720 | 8403 ft | 277 kts | 13° |
| 2026-05-07 01:59 | 40.66491 | -3.55063 | 9301 ft | 279 kts | 13° |
| 2026-05-07 01:59 | 40.68375 | -3.54384 | 10166 ft | 283 kts | 13° |
| 2026-05-07 01:59 | 40.70317 | -3.53596 | 10593 ft | 304 kts | 23° |
| 2026-05-07 01:59 | 40.72022 | -3.51798 | 10886 ft | 330 kts | 51° |
| 2026-05-07 02:00 | 40.73284 | -3.49160 | 11249 ft | 349 kts | 58° |
| 2026-05-07 02:00 | 40.74519 | -3.46350 | 11857 ft | 358 kts | 58° |
| 2026-05-07 02:00 | 40.75829 | -3.43527 | 12573 ft | 363 kts | 56° |
| 2026-05-07 02:00 | 40.77206 | -3.40699 | 13304 ft | 369 kts | 55° |
| 2026-05-07 02:01 | 40.78632 | -3.37853 | 14020 ft | 374 kts | 54° |
| 2026-05-07 02:01 | 40.80093 | -3.34979 | 14638 ft | 380 kts | 54° |
| 2026-05-07 02:01 | 40.81587 | -3.32067 | 15252 ft | 386 kts | 54° |
| 2026-05-07 02:01 | 40.83107 | -3.29112 | 15873 ft | 392 kts | 53° |
| 2026-05-07 02:02 | 40.84656 | -3.26119 | 16475 ft | 397 kts | 52° |
| 2026-05-07 02:02 | 40.86161 | -3.23026 | 17084 ft | 406 kts | 64° |
| 2026-05-07 02:02 | 40.86965 | -3.19431 | 17786 ft | 411 kts | 77° |
| 2026-05-07 02:02 | 40.87516 | -3.15710 | 18436 ft | 415 kts | 78° |
| 2026-05-07 02:03 | 40.88107 | -3.11955 | 18921 ft | 420 kts | 76° |
| 2026-05-07 02:03 | 40.88762 | -3.08169 | 19410 ft | 425 kts | 75° |
| 2026-05-07 02:03 | 40.89463 | -3.04348 | 19909 ft | 431 kts | 75° |
| 2026-05-07 02:03 | 40.90194 | -3.00480 | 20358 ft | 437 kts | 75° |
| 2026-05-07 02:04 | 40.90946 | -2.96567 | 20845 ft | 441 kts | 74° |
| 2026-05-07 02:04 | 40.91701 | -2.92668 | 21332 ft | 446 kts | 74° |
| 2026-05-07 02:04 | 40.92474 | -2.88679 | 21818 ft | 451 kts | 74° |
| 2026-05-07 02:04 | 40.93258 | -2.84642 | 22291 ft | 455 kts | 74° |
| 2026-05-07 02:05 | 40.94048 | -2.80571 | 22768 ft | 460 kts | 74° |
| 2026-05-07 02:05 | 40.94846 | -2.76453 | 23241 ft | 464 kts | 74° |
| 2026-05-07 02:05 | 40.95649 | -2.72300 | 23658 ft | 469 kts | 74° |
| 2026-05-07 02:05 | 40.96460 | -2.68103 | 24048 ft | 472 kts | 74° |
| 2026-05-07 02:06 | 40.97275 | -2.63874 | 24386 ft | 477 kts | 75° |
| 2026-05-07 02:06 | 40.98097 | -2.59599 | 24764 ft | 481 kts | 75° |
| 2026-05-07 02:06 | 40.98922 | -2.55299 | 25192 ft | 484 kts | 75° |
| 2026-05-07 02:06 | 40.99751 | -2.50968 | 25587 ft | 487 kts | 75° |
| 2026-05-07 02:07 | 41.00582 | -2.46612 | 25990 ft | 490 kts | 75° |
| 2026-05-07 02:07 | 41.02255 | -2.37808 | 26770 ft | 496 kts | 75° |
| 2026-05-07 02:07 | 41.03097 | -2.33366 | 27161 ft | 499 kts | 75° |
| 2026-05-07 02:08 | 41.03943 | -2.28897 | 27549 ft | 502 kts | 75° |
| 2026-05-07 02:08 | 41.04785 | -2.24444 | 27827 ft | 507 kts | 76° |
| 2026-05-07 02:08 | 41.05643 | -2.19899 | 28198 ft | 511 kts | 76° |
| 2026-05-07 02:08 | 41.06505 | -2.15321 | 28592 ft | 513 kts | 76° |
| 2026-05-07 02:09 | 41.07369 | -2.10720 | 28969 ft | 516 kts | 76° |
| 2026-05-07 02:09 | 41.08238 | -2.06084 | 29348 ft | 519 kts | 76° |
| 2026-05-07 02:09 | 41.09105 | -2.01436 | 29726 ft | 521 kts | 76° |
| 2026-05-07 02:09 | 41.09977 | -1.96747 | 30086 ft | 525 kts | 76° |
| 2026-05-07 02:10 | 41.10851 | -1.92038 | 30400 ft | 527 kts | 76° |
| 2026-05-07 02:10 | 41.11729 | -1.87292 | 30687 ft | 531 kts | 76° |
| 2026-05-07 02:10 | 41.12608 | -1.82531 | 31016 ft | 533 kts | 76° |
| 2026-05-07 02:10 | 41.13488 | -1.77750 | 31369 ft | 534 kts | 76° |
| 2026-05-07 02:11 | 41.14365 | -1.72972 | 31833 ft | 532 kts | 76° |
| 2026-05-07 02:11 | 41.15238 | -1.68210 | 32312 ft | 530 kts | 76° |
| 2026-05-07 02:11 | 41.16106 | -1.63459 | 32731 ft | 529 kts | 76° |
| 2026-05-07 02:11 | 41.16971 | -1.58715 | 33149 ft | 529 kts | 76° |
| 2026-05-07 02:12 | 41.17834 | -1.53972 | 33572 ft | 528 kts | 76° |
| 2026-05-07 02:12 | 41.18682 | -1.49299 | 33917 ft | 528 kts | 76° |
| 2026-05-07 02:12 | 41.19540 | -1.44555 | 34243 ft | 529 kts | 76° |
| 2026-05-07 02:12 | 41.20397 | -1.39816 | 34610 ft | 527 kts | 76° |
| 2026-05-07 02:13 | 41.21248 | -1.35092 | 34986 ft | 525 kts | 76° |
| 2026-05-07 02:13 | 41.22095 | -1.30381 | 35354 ft | 523 kts | 76° |
| 2026-05-07 02:13 | 41.22935 | -1.25693 | 35691 ft | 522 kts | 76° |
| 2026-05-07 02:13 | 41.23775 | -1.21000 | 36028 ft | 521 kts | 76° |
| 2026-05-07 02:14 | 41.24612 | -1.16311 | 36338 ft | 521 kts | 76° |
| 2026-05-07 02:14 | 41.25444 | -1.11634 | 36618 ft | 520 kts | 77° |
| 2026-05-07 02:14 | 41.26273 | -1.06963 | 36937 ft | 520 kts | 77° |
| 2026-05-07 02:14 | 41.27101 | -1.02288 | 37247 ft | 519 kts | 77° |
| 2026-05-07 02:15 | 41.27924 | -0.97628 | 37560 ft | 518 kts | 77° |
| 2026-05-07 02:15 | 41.28744 | -0.92972 | 37863 ft | 517 kts | 77° |
| 2026-05-07 02:15 | 41.29561 | -0.88322 | 38156 ft | 516 kts | 77° |
| 2026-05-07 02:15 | 41.30375 | -0.83681 | 38450 ft | 515 kts | 77° |
| 2026-05-07 02:16 | 41.31186 | -0.79041 | 38719 ft | 514 kts | 77° |
| 2026-05-07 02:16 | 41.31992 | -0.74414 | 38908 ft | 514 kts | 77° |
| 2026-05-07 02:16 | 41.32799 | -0.69779 | 39043 ft | 515 kts | 77° |
| 2026-05-07 02:16 | 41.33333 | -0.66699 | 39160 ft | 516 kts | 77° |
| 2026-05-07 02:17 | 41.34138 | -0.62051 | 39355 ft | 515 kts | 77° |
| 2026-05-07 02:17 | 41.34940 | -0.57405 | 39584 ft | 514 kts | 77° |
| 2026-05-07 02:17 | 41.35514 | -0.52723 | 39804 ft | 512 kts | 86° |
| 2026-05-07 02:17 | 41.35681 | -0.47987 | 39956 ft | 513 kts | 91° |
| 2026-05-07 02:18 | 41.35521 | -0.38479 | 39980 ft | 515 kts | 94° |
| 2026-05-07 02:18 | 41.35272 | -0.28948 | 39979 ft | 515 kts | 93° |
| 2026-05-07 02:19 | 41.35116 | -0.19416 | 39977 ft | 515 kts | 92° |
| 2026-05-07 02:19 | 41.35017 | -0.09882 | 39978 ft | 515 kts | 92° |
| 2026-05-07 02:20 | 41.34925 | -0.00342 | 39979 ft | 515 kts | 92° |
| 2026-05-07 02:20 | 41.34823 | 0.09187 | 39980 ft | 515 kts | 92° |
| 2026-05-07 02:21 | 41.34709 | 0.18716 | 39972 ft | 515 kts | 92° |
| 2026-05-07 02:21 | 41.34586 | 0.28251 | 39979 ft | 515 kts | 92° |
| 2026-05-07 02:22 | 41.34454 | 0.37787 | 39985 ft | 515 kts | 92° |
| 2026-05-07 02:22 | 41.34316 | 0.47259 | 39977 ft | 515 kts | 93° |
| 2026-05-07 02:23 | 41.34170 | 0.56787 | 39980 ft | 515 kts | 93° |
| 2026-05-07 02:23 | 41.34016 | 0.66317 | 39977 ft | 515 kts | 93° |
| 2026-05-07 02:24 | 41.33854 | 0.75843 | 39968 ft | 515 kts | 93° |
| 2026-05-07 02:24 | 41.33684 | 0.85381 | 39963 ft | 516 kts | 93° |
| 2026-05-07 02:25 | 41.33507 | 0.94928 | 39949 ft | 516 kts | 93° |
| 2026-05-07 02:25 | 41.33321 | 1.04481 | 39945 ft | 516 kts | 93° |
| 2026-05-07 02:26 | 41.33127 | 1.14035 | 39943 ft | 516 kts | 93° |
| 2026-05-07 02:26 | 41.32926 | 1.23591 | 39942 ft | 516 kts | 94° |
| 2026-05-07 02:27 | 41.32718 | 1.33138 | 39946 ft | 516 kts | 94° |
| 2026-05-07 02:27 | 41.32502 | 1.42629 | 39946 ft | 516 kts | 94° |
| 2026-05-07 02:28 | 41.32277 | 1.52182 | 39949 ft | 516 kts | 94° |
| 2026-05-07 02:28 | 41.32045 | 1.61729 | 39946 ft | 516 kts | 94° |
| 2026-05-07 02:29 | 41.31805 | 1.71267 | 39947 ft | 516 kts | 94° |
| 2026-05-07 02:29 | 41.31555 | 1.80803 | 39947 ft | 516 kts | 94° |
| 2026-05-07 02:30 | 41.31297 | 1.90333 | 39937 ft | 516 kts | 94° |
| 2026-05-07 02:30 | 41.31032 | 1.99858 | 39937 ft | 515 kts | 94° |
| 2026-05-07 02:31 | 41.30749 | 2.09393 | 39940 ft | 515 kts | 96° |
| 2026-05-07 02:31 | 41.29681 | 2.18691 | 39938 ft | 511 kts | 105° |
| 2026-05-07 02:32 | 41.28065 | 2.27881 | 39937 ft | 510 kts | 107° |
| 2026-05-07 02:32 | 41.26420 | 2.37060 | 39934 ft | 510 kts | 106° |
| 2026-05-07 02:33 | 41.24842 | 2.46256 | 39931 ft | 510 kts | 106° |
| 2026-05-07 02:33 | 41.23298 | 2.55455 | 39929 ft | 510 kts | 106° |
| 2026-05-07 02:34 | 41.21756 | 2.64653 | 39931 ft | 510 kts | 106° |
| 2026-05-07 02:34 | 41.20204 | 2.73841 | 39930 ft | 509 kts | 106° |
| 2026-05-07 02:35 | 41.18646 | 2.83009 | 39927 ft | 509 kts | 106° |
| 2026-05-07 02:35 | 41.17090 | 2.92102 | 39927 ft | 509 kts | 106° |
| 2026-05-07 02:36 | 41.15516 | 3.01258 | 39930 ft | 509 kts | 106° |
| 2026-05-07 02:36 | 41.13936 | 3.10402 | 39929 ft | 508 kts | 107° |
| 2026-05-07 02:37 | 41.12351 | 3.19532 | 39930 ft | 507 kts | 107° |
| 2026-05-07 02:37 | 41.10760 | 3.28646 | 39930 ft | 507 kts | 107° |
| 2026-05-07 02:38 | 41.09162 | 3.37754 | 39933 ft | 507 kts | 107° |
| 2026-05-07 02:38 | 41.07557 | 3.46858 | 39923 ft | 507 kts | 107° |
| 2026-05-07 02:39 | 41.05946 | 3.55956 | 39936 ft | 507 kts | 107° |
| 2026-05-07 02:39 | 41.04328 | 3.65041 | 39937 ft | 507 kts | 107° |
| 2026-05-07 02:40 | 41.02714 | 3.74067 | 39935 ft | 507 kts | 107° |
| 2026-05-07 02:40 | 41.01082 | 3.83141 | 39925 ft | 506 kts | 107° |
| 2026-05-07 02:41 | 40.99442 | 3.92209 | 39935 ft | 506 kts | 107° |
| 2026-05-07 02:41 | 40.97796 | 4.01259 | 39937 ft | 506 kts | 107° |
| 2026-05-07 02:42 | 40.96145 | 4.10303 | 39934 ft | 506 kts | 107° |
| 2026-05-07 02:42 | 40.94486 | 4.19346 | 39934 ft | 506 kts | 108° |
| 2026-05-07 02:43 | 40.92821 | 4.28382 | 39933 ft | 505 kts | 108° |
| 2026-05-07 02:43 | 40.91161 | 4.37344 | 39933 ft | 505 kts | 108° |
| 2026-05-07 02:44 | 40.89484 | 4.46358 | 39930 ft | 505 kts | 108° |
| 2026-05-07 02:44 | 40.87805 | 4.55369 | 39930 ft | 505 kts | 108° |
| 2026-05-07 02:45 | 40.86121 | 4.64378 | 39930 ft | 505 kts | 107° |
| 2026-05-07 02:45 | 40.84891 | 4.73531 | 39930 ft | 508 kts | 101° |
| 2026-05-07 02:46 | 40.84087 | 4.82800 | 39934 ft | 508 kts | 99° |
| 2026-05-07 02:46 | 40.83311 | 4.92084 | 39930 ft | 508 kts | 100° |
| 2026-05-07 02:47 | 40.82477 | 5.01342 | 39922 ft | 508 kts | 100° |
| 2026-05-07 02:47 | 40.81605 | 5.10582 | 39939 ft | 507 kts | 101° |
| 2026-05-07 02:48 | 40.80718 | 5.19804 | 39931 ft | 507 kts | 101° |
| 2026-05-07 02:48 | 40.79831 | 5.28970 | 39931 ft | 507 kts | 101° |
| 2026-05-07 02:49 | 40.78933 | 5.38187 | 39928 ft | 506 kts | 101° |
| 2026-05-07 02:49 | 40.78030 | 5.47388 | 39922 ft | 505 kts | 101° |
| 2026-05-07 02:50 | 40.77121 | 5.56570 | 39925 ft | 505 kts | 101° |
| 2026-05-07 02:50 | 40.76202 | 5.65769 | 39935 ft | 506 kts | 101° |
| 2026-05-07 02:51 | 40.75278 | 5.74958 | 39928 ft | 505 kts | 101° |
| 2026-05-07 02:51 | 40.74347 | 5.84133 | 39933 ft | 504 kts | 101° |
| 2026-05-07 02:52 | 40.73411 | 5.93293 | 39936 ft | 504 kts | 101° |
| 2026-05-07 02:52 | 40.72472 | 6.02383 | 39935 ft | 504 kts | 101° |
| 2026-05-07 02:53 | 40.71520 | 6.11527 | 39927 ft | 503 kts | 101° |
| 2026-05-07 02:53 | 40.70562 | 6.20661 | 39934 ft | 502 kts | 101° |
| 2026-05-07 02:54 | 40.69598 | 6.29774 | 39933 ft | 502 kts | 101° |
| 2026-05-07 02:54 | 40.68628 | 6.38879 | 39936 ft | 502 kts | 101° |
| 2026-05-07 02:55 | 40.67650 | 6.47981 | 39925 ft | 502 kts | 101° |
| 2026-05-07 02:55 | 40.66668 | 6.57063 | 39935 ft | 500 kts | 101° |
| 2026-05-07 02:56 | 40.65681 | 6.66113 | 39934 ft | 499 kts | 101° |
| 2026-05-07 02:56 | 40.64686 | 6.75169 | 39937 ft | 499 kts | 101° |
| 2026-05-07 02:57 | 40.63685 | 6.84212 | 39940 ft | 499 kts | 102° |
| 2026-05-07 02:57 | 40.62678 | 6.93240 | 39937 ft | 497 kts | 102° |
| 2026-05-07 02:58 | 40.61669 | 7.02235 | 39939 ft | 497 kts | 102° |
| 2026-05-07 02:58 | 40.60651 | 7.11229 | 39942 ft | 497 kts | 102° |
| 2026-05-07 02:59 | 40.59633 | 7.20161 | 39940 ft | 497 kts | 102° |
| 2026-05-07 02:59 | 40.58602 | 7.29147 | 39943 ft | 497 kts | 102° |
| 2026-05-07 03:00 | 40.57563 | 7.38143 | 39943 ft | 497 kts | 102° |
| 2026-05-07 03:00 | 40.56536 | 7.47127 | 39943 ft | 498 kts | 99° |
| 2026-05-07 03:01 | 40.56709 | 7.56259 | 39940 ft | 502 kts | 85° |
| 2026-05-07 03:01 | 40.57644 | 7.65315 | 39940 ft | 503 kts | 84° |
| 2026-05-07 03:02 | 40.58599 | 7.74416 | 39944 ft | 502 kts | 85° |
| 2026-05-07 03:02 | 40.59437 | 7.83542 | 39946 ft | 502 kts | 85° |
| 2026-05-07 03:03 | 40.60210 | 7.92668 | 39946 ft | 502 kts | 86° |
| 2026-05-07 03:03 | 40.60963 | 8.01798 | 39941 ft | 501 kts | 86° |
| 2026-05-07 03:04 | 40.61714 | 8.10906 | 39940 ft | 500 kts | 86° |
| 2026-05-07 03:04 | 40.62460 | 8.20005 | 39942 ft | 500 kts | 86° |
| 2026-05-07 03:05 | 40.63902 | 8.28961 | 39940 ft | 503 kts | 71° |
| 2026-05-07 03:05 | 40.66615 | 8.37474 | 39934 ft | 504 kts | 66° |
| 2026-05-07 03:06 | 40.69484 | 8.45838 | 39950 ft | 504 kts | 67° |
| 2026-05-07 03:06 | 40.72263 | 8.54320 | 39949 ft | 504 kts | 68° |
| 2026-05-07 03:07 | 40.74954 | 8.62850 | 39953 ft | 504 kts | 69° |
| 2026-05-07 03:07 | 40.77615 | 8.71398 | 39949 ft | 504 kts | 69° |
| 2026-05-07 03:08 | 40.80271 | 8.79958 | 39960 ft | 504 kts | 69° |
| 2026-05-07 03:08 | 40.82929 | 8.88532 | 39953 ft | 505 kts | 69° |
| 2026-05-07 03:09 | 40.85584 | 8.97118 | 39946 ft | 505 kts | 69° |
| 2026-05-07 03:09 | 40.88235 | 9.05714 | 39947 ft | 505 kts | 69° |
| 2026-05-07 03:10 | 40.90876 | 9.14307 | 39944 ft | 504 kts | 69° |
| 2026-05-07 03:10 | 40.93489 | 9.22838 | 39944 ft | 504 kts | 69° |
| 2026-05-07 03:11 | 40.96114 | 9.31437 | 39944 ft | 504 kts | 69° |
| 2026-05-07 03:11 | 40.98732 | 9.40039 | 39937 ft | 504 kts | 69° |
| 2026-05-07 03:12 | 41.01347 | 9.48661 | 39924 ft | 504 kts | 69° |
| 2026-05-07 03:12 | 41.03944 | 9.57251 | 39938 ft | 501 kts | 69° |
| 2026-05-07 03:13 | 41.06525 | 9.65816 | 39938 ft | 500 kts | 69° |
| 2026-05-07 03:13 | 41.08665 | 9.72938 | 39939 ft | 500 kts | 69° |
| 2026-05-07 03:14 | 41.11232 | 9.81510 | 39936 ft | 500 kts | 69° |
| 2026-05-07 03:15 | 41.15068 | 9.94370 | 39943 ft | 500 kts | 69° |
| 2026-05-07 03:15 | 41.17618 | 10.02952 | 39944 ft | 500 kts | 69° |
| 2026-05-07 03:16 | 41.20162 | 10.11544 | 39944 ft | 500 kts | 70° |
| 2026-05-07 03:16 | 41.22699 | 10.20139 | 39947 ft | 500 kts | 70° |
| 2026-05-07 03:17 | 41.25212 | 10.28679 | 39897 ft | 488 kts | 70° |
| 2026-05-07 03:17 | 41.26432 | 10.32833 | 39826 ft | 477 kts | 70° |
| 2026-05-07 03:17 | 41.27625 | 10.36900 | 39714 ft | 468 kts | 70° |
| 2026-05-07 03:17 | 41.28794 | 10.40895 | 39581 ft | 460 kts | 70° |
| 2026-05-07 03:18 | 41.29942 | 10.44823 | 39434 ft | 452 kts | 70° |
| 2026-05-07 03:18 | 41.31071 | 10.48692 | 39265 ft | 445 kts | 70° |
| 2026-05-07 03:18 | 41.32181 | 10.52506 | 39071 ft | 439 kts | 70° |
| 2026-05-07 03:18 | 41.33277 | 10.56276 | 38864 ft | 434 kts | 70° |
| 2026-05-07 03:19 | 41.34357 | 10.59995 | 38626 ft | 429 kts | 70° |
| 2026-05-07 03:19 | 41.35425 | 10.63681 | 38333 ft | 424 kts | 70° |
| 2026-05-07 03:19 | 41.36468 | 10.67283 | 38048 ft | 420 kts | 71° |
| 2026-05-07 03:19 | 41.37512 | 10.70896 | 37737 ft | 416 kts | 71° |
| 2026-05-07 03:20 | 41.38547 | 10.74478 | 37437 ft | 413 kts | 71° |
| 2026-05-07 03:20 | 41.39572 | 10.78035 | 37121 ft | 410 kts | 71° |
| 2026-05-07 03:20 | 41.40587 | 10.81561 | 36812 ft | 406 kts | 71° |
| 2026-05-07 03:20 | 41.41595 | 10.85065 | 36500 ft | 404 kts | 71° |
| 2026-05-07 03:21 | 41.42596 | 10.88549 | 36204 ft | 401 kts | 71° |
| 2026-05-07 03:21 | 41.43586 | 10.92002 | 35891 ft | 398 kts | 71° |
| 2026-05-07 03:21 | 41.44570 | 10.95438 | 35583 ft | 396 kts | 71° |
| 2026-05-07 03:21 | 41.45547 | 10.98854 | 35268 ft | 393 kts | 71° |
| 2026-05-07 03:22 | 41.46518 | 11.02253 | 34984 ft | 391 kts | 71° |
| 2026-05-07 03:22 | 41.47481 | 11.05628 | 34688 ft | 389 kts | 71° |
| 2026-05-07 03:22 | 41.48436 | 11.08992 | 34385 ft | 387 kts | 71° |
| 2026-05-07 03:22 | 41.49381 | 11.12341 | 34085 ft | 385 kts | 71° |
| 2026-05-07 03:23 | 41.50318 | 11.15671 | 33773 ft | 383 kts | 71° |
| 2026-05-07 03:23 | 41.51251 | 11.18991 | 33424 ft | 381 kts | 71° |
| 2026-05-07 03:23 | 41.52165 | 11.22251 | 33102 ft | 379 kts | 71° |
| 2026-05-07 03:23 | 41.53086 | 11.25537 | 32772 ft | 377 kts | 71° |
| 2026-05-07 03:24 | 41.54002 | 11.28806 | 32454 ft | 375 kts | 71° |
| 2026-05-07 03:24 | 41.54911 | 11.32060 | 32126 ft | 373 kts | 71° |
| 2026-05-07 03:24 | 41.55815 | 11.35296 | 31817 ft | 371 kts | 71° |
| 2026-05-07 03:24 | 41.56715 | 11.38520 | 31511 ft | 369 kts | 71° |
| 2026-05-07 03:25 | 41.57684 | 11.41686 | 31205 ft | 368 kts | 59° |
| 2026-05-07 03:25 | 41.59307 | 11.44277 | 30871 ft | 363 kts | 39° |
| 2026-05-07 03:25 | 41.61236 | 11.46430 | 30580 ft | 360 kts | 36° |
| 2026-05-07 03:25 | 41.63189 | 11.48526 | 30293 ft | 359 kts | 36° |
| 2026-05-07 03:26 | 41.65121 | 11.50630 | 29996 ft | 358 kts | 36° |
| 2026-05-07 03:26 | 41.67037 | 11.52752 | 29646 ft | 357 kts | 37° |
| 2026-05-07 03:26 | 41.68935 | 11.54878 | 29324 ft | 355 kts | 37° |
| 2026-05-07 03:26 | 41.70817 | 11.57000 | 29025 ft | 353 kts | 37° |
| 2026-05-07 03:27 | 41.72690 | 11.59122 | 28693 ft | 351 kts | 37° |
| 2026-05-07 03:27 | 41.74549 | 11.61233 | 28388 ft | 349 kts | 37° |
| 2026-05-07 03:27 | 41.76398 | 11.63337 | 28088 ft | 347 kts | 37° |
| 2026-05-07 03:27 | 41.78234 | 11.65429 | 27796 ft | 345 kts | 37° |
| 2026-05-07 03:28 | 41.80034 | 11.67481 | 27510 ft | 343 kts | 37° |
| 2026-05-07 03:28 | 41.81845 | 11.69549 | 27235 ft | 341 kts | 37° |
| 2026-05-07 03:28 | 41.83643 | 11.71602 | 26960 ft | 338 kts | 37° |
| 2026-05-07 03:28 | 41.85427 | 11.73643 | 26680 ft | 336 kts | 38° |
| 2026-05-07 03:29 | 41.87199 | 11.75671 | 26439 ft | 334 kts | 37° |
| 2026-05-07 03:29 | 41.88963 | 11.77696 | 26281 ft | 334 kts | 38° |
| 2026-05-07 03:29 | 41.90728 | 11.79717 | 26155 ft | 334 kts | 37° |
| 2026-05-07 03:29 | 41.92494 | 11.81732 | 26060 ft | 332 kts | 37° |
| 2026-05-07 03:30 | 41.94240 | 11.83756 | 25920 ft | 330 kts | 46° |
| 2026-05-07 03:30 | 41.95955 | 11.85805 | 25603 ft | 330 kts | 38° |
| 2026-05-07 03:30 | 41.97704 | 11.87799 | 25328 ft | 330 kts | 37° |
| 2026-05-07 03:30 | 41.99460 | 11.89785 | 25143 ft | 330 kts | 37° |
| 2026-05-07 03:31 | 42.01236 | 11.91806 | 24662 ft | 340 kts | 38° |
| 2026-05-07 03:31 | 42.03070 | 11.93905 | 23979 ft | 353 kts | 38° |
| 2026-05-07 03:31 | 42.04968 | 11.96086 | 23266 ft | 365 kts | 39° |
| 2026-05-07 03:31 | 42.06924 | 11.98339 | 22462 ft | 375 kts | 39° |
| 2026-05-07 03:32 | 42.08931 | 12.00657 | 21696 ft | 385 kts | 39° |
| 2026-05-07 03:32 | 42.11036 | 12.02943 | 20935 ft | 393 kts | 35° |
| 2026-05-07 03:32 | 42.13057 | 12.05458 | 20179 ft | 402 kts | 53° |
| 2026-05-07 03:32 | 42.14328 | 12.08816 | 19456 ft | 407 kts | 75° |
| 2026-05-07 03:33 | 42.14654 | 12.12589 | 18747 ft | 407 kts | 96° |
| 2026-05-07 03:33 | 42.13996 | 12.16269 | 18020 ft | 404 kts | 117° |
| 2026-05-07 03:33 | 42.12491 | 12.19332 | 17245 ft | 392 kts | 138° |
| 2026-05-07 03:33 | 42.10363 | 12.21411 | 16481 ft | 368 kts | 160° |
| 2026-05-07 03:34 | 42.07972 | 12.22232 | 15718 ft | 346 kts | 178° |
| 2026-05-07 03:34 | 42.05621 | 12.22439 | 14989 ft | 332 kts | 181° |
| 2026-05-07 03:34 | 42.03347 | 12.22619 | 14274 ft | 323 kts | 180° |
| 2026-05-07 03:34 | 42.01136 | 12.22764 | 13509 ft | 314 kts | 180° |
| 2026-05-07 03:35 | 41.98980 | 12.22878 | 12739 ft | 306 kts | 184° |
| 2026-05-07 03:35 | 41.96898 | 12.22623 | 11972 ft | 295 kts | 195° |
| 2026-05-07 03:35 | 41.95014 | 12.21685 | 11231 ft | 285 kts | 213° |
| 2026-05-07 03:35 | 41.93545 | 12.19960 | 10504 ft | 279 kts | 232° |
| 2026-05-07 03:36 | 41.92629 | 12.17691 | 9755 ft | 277 kts | 251° |
| 2026-05-07 03:36 | 41.92361 | 12.15145 | 8969 ft | 278 kts | 270° |
| 2026-05-07 03:36 | 41.92819 | 12.12627 | 8205 ft | 282 kts | 292° |
| 2026-05-07 03:36 | 41.93963 | 12.10467 | 7454 ft | 286 kts | 307° |
| 2026-05-07 03:37 | 41.95354 | 12.08548 | 6634 ft | 288 kts | 310° |
| 2026-05-07 03:37 | 41.96766 | 12.06613 | 5644 ft | 292 kts | 308° |
| 2026-05-07 03:37 | 41.98095 | 12.04538 | 4635 ft | 295 kts | 305° |
| 2026-05-07 03:37 | 41.99455 | 12.02448 | 3754 ft | 298 kts | 311° |
| 2026-05-07 03:38 | 42.01187 | 12.00992 | 3211 ft | 294 kts | 342° |
| 2026-05-07 03:38 | 42.03149 | 12.00996 | 3008 ft | 275 kts | 19° |
| 2026-05-07 03:38 | 42.04609 | 12.02329 | 3002 ft | 238 kts | 57° |
| 2026-05-07 03:38 | 42.05351 | 12.04141 | 3011 ft | 210 kts | 70° |
| 2026-05-07 03:39 | 42.05779 | 12.05892 | 3001 ft | 193 kts | 88° |
| 2026-05-07 03:39 | 42.05702 | 12.07587 | 2950 ft | 171 kts | 112° |
| 2026-05-07 03:39 | 42.05305 | 12.09007 | 2901 ft | 155 kts | 120° |
| 2026-05-07 03:39 | 42.04867 | 12.10281 | 2758 ft | 145 kts | 122° |
| 2026-05-07 03:40 | 42.04426 | 12.11483 | 2582 ft | 146 kts | 122° |
| 2026-05-07 03:40 | 42.03941 | 12.12765 | 2512 ft | 161 kts | 122° |
| 2026-05-07 03:40 | 42.03424 | 12.14128 | 2515 ft | 165 kts | 122° |
| 2026-05-07 03:40 | 42.02903 | 12.15513 | 2499 ft | 167 kts | 122° |
| 2026-05-07 03:41 | 42.02377 | 12.16911 | 2503 ft | 168 kts | 122° |
| 2026-05-07 03:41 | 42.01795 | 12.18267 | 2506 ft | 166 kts | 135° |
| 2026-05-07 03:41 | 42.00864 | 12.19160 | 2530 ft | 165 kts | 153° |
| 2026-05-07 03:41 | 41.99779 | 12.19764 | 2515 ft | 169 kts | 161° |
| 2026-05-07 03:42 | 41.98712 | 12.20226 | 2545 ft | 155 kts | 163° |
| 2026-05-07 03:42 | 41.97711 | 12.20643 | 2529 ft | 146 kts | 163° |
| 2026-05-07 03:42 | 41.96768 | 12.21039 | 2503 ft | 138 kts | 162° |
| 2026-05-07 03:42 | 41.95854 | 12.21434 | 2380 ft | 138 kts | 164° |
| 2026-05-07 03:43 | 41.94957 | 12.21823 | 2184 ft | 134 kts | 163° |
| 2026-05-07 03:43 | 41.94070 | 12.22190 | 2004 ft | 132 kts | 163° |
| 2026-05-07 03:43 | 41.93208 | 12.22547 | 1840 ft | 126 kts | 162° |
| 2026-05-07 03:43 | 41.92406 | 12.22885 | 1652 ft | 120 kts | 162° |
| 2026-05-07 03:44 | 41.91612 | 12.23190 | 1452 ft | 119 kts | 162° |
| 2026-05-07 03:44 | 41.90813 | 12.23514 | 1357 ft | 122 kts | 162° |
| 2026-05-07 03:44 | 41.90000 | 12.23869 | 1165 ft | 124 kts | 161° |
| 2026-05-07 03:44 | 41.89180 | 12.24227 | 1014 ft | 125 kts | 161° |
| 2026-05-07 03:45 | 41.88352 | 12.24603 | 875 ft | 128 kts | 159° |
| 2026-05-07 03:45 | 41.87493 | 12.24970 | 673 ft | 127 kts | 163° |
| 2026-05-07 03:45 | 41.86654 | 12.25284 | 509 ft | 123 kts | 160° |
| 2026-05-07 03:45 | 41.85829 | 12.25644 | 335 ft | 127 kts | 162° |
| 2026-05-07 03:46 | 41.84975 | 12.26001 | 164 ft | 130 kts | 161° |
| 2026-05-07 03:46 | 41.84100 | 12.26363 | 44 ft | 132 kts | 161° |
| 2026-05-07 03:46 | 41.83306 | 12.26698 | 15 ft | 97 kts | 163° |
| 2026-05-07 03:46 | 41.82893 | 12.26862 | 16 ft | 44 kts | 171° |
| 2026-05-07 03:47 | 41.82599 | 12.26837 | 14 ft | 42 kts | 193° |
| 2026-05-07 03:47 | 41.82322 | 12.26787 | 15 ft | 39 kts | 171° |
| 2026-05-07 03:47 | 41.82067 | 12.26885 | 14 ft | 38 kts | 162° |
| 2026-05-07 03:47 | 41.81821 | 12.26989 | 15 ft | 37 kts | 162° |
| 2026-05-07 03:48 | 41.81581 | 12.27090 | 18 ft | 36 kts | 163° |
| 2026-05-07 03:48 | 41.81348 | 12.27186 | 16 ft | 35 kts | 162° |
| 2026-05-07 03:48 | 41.81118 | 12.27284 | 16 ft | 34 kts | 162° |
| 2026-05-07 03:48 | 41.80895 | 12.27345 | 16 ft | 31 kts | 185° |
| 2026-05-07 03:49 | 41.80697 | 12.27281 | 16 ft | 29 kts | 215° |
| 2026-05-07 03:49 | 41.80609 | 12.27055 | 17 ft | 25 kts | 249° |
| 2026-05-07 03:49 | 41.80563 | 12.26888 | 17 ft | 16 kts | 250° |
| 2026-05-07 03:49 | 41.80523 | 12.26746 | 18 ft | 17 kts | 249° |
| 2026-05-07 03:50 | 41.80481 | 12.26594 | 20 ft | 18 kts | 250° |
| 2026-05-07 03:50 | 41.80455 | 12.26499 | 19 ft | 10 kts | 250° |
| 2026-05-07 03:50 | 41.80430 | 12.26402 | 19 ft | 15 kts | 250° |
| 2026-05-07 03:50 | 41.80386 | 12.26239 | 20 ft | 20 kts | 250° |
| 2026-05-07 03:51 | 41.80303 | 12.26092 | 18 ft | 21 kts | 211° |
| 2026-05-07 03:51 | 41.80168 | 12.26005 | 18 ft | 22 kts | 205° |
| 2026-05-07 03:51 | 41.80023 | 12.25914 | 18 ft | 24 kts | 204° |
| 2026-05-07 03:51 | 41.79938 | 12.25832 | 18 ft | 8 kts | 264° |
| 2026-05-07 03:52 | 41.79984 | 12.25655 | 18 ft | 27 kts | 296° |
| 2026-05-07 03:52 | 41.79960 | 12.25552 | 18 ft | 11 kts | 209° |
| 2026-05-07 03:52 | 41.79886 | 12.25504 | 19 ft | 13 kts | 205° |
| 2026-05-07 03:52 | 41.79846 | 12.25510 | 18 ft | 0 kts | 133° |
| 2026-05-07 03:53 | 41.79837 | 12.25531 | 18 ft | 3 kts | 119° |
| 2026-05-07 03:53 | 41.79834 | 12.25539 | 18 ft | 0 kts | 117° |
| 2026-05-07 03:55 | 41.79777 | 12.25123 | 19 ft | 0 kts | 115° |